UAL2278 KSAN-KSFO
Flight info
| Callsign | UAL2278 |
|---|---|
| Flight time | 1h 8m |
| Altitude | 36000 |
| Route | PADRZ2 IKAYE RIZIN SPLNT STOKD SERFR SERFR4 |
| Aircraft | B738/M-SDE2E3FGHIRWXY/LB1 |
Departure
| Time | 2026-04-24 05:58 |
|---|---|
| Airport | San Diego International Airport (KSAN) |
Arrival
| Time | 2026-04-24 07:07 |
|---|---|
| Airport | San Francisco International Airport (KSFO) |
| Time | Latitude | Longitude | Altitude | Speed | Heading |
|---|---|---|---|---|---|
| 2026-04-24 05:55 | 32.73003 | -117.17934 | 23 ft | 20 kts | 107° |
| 2026-04-24 05:55 | 32.72954 | -117.17741 | 24 ft | 9 kts | 105° |
| 2026-04-24 05:56 | 32.72949 | -117.17715 | 24 ft | 3 kts | 95° |
| 2026-04-24 05:56 | 32.72949 | -117.17690 | 24 ft | 2 kts | 86° |
| 2026-04-24 05:56 | 32.72951 | -117.17673 | 24 ft | 1 kts | 78° |
| 2026-04-24 05:56 | 32.72962 | -117.17629 | 24 ft | 8 kts | 71° |
| 2026-04-24 05:57 | 32.72979 | -117.17593 | 25 ft | 7 kts | 40° |
| 2026-04-24 05:57 | 32.73029 | -117.17617 | 24 ft | 6 kts | 295° |
| 2026-04-24 05:57 | 32.73043 | -117.17675 | 24 ft | 10 kts | 285° |
| 2026-04-24 05:57 | 32.73112 | -117.17960 | 24 ft | 71 kts | 285° |
| 2026-04-24 05:58 | 32.73313 | -117.18797 | 23 ft | 136 kts | 286° |
| 2026-04-24 05:58 | 32.73627 | -117.20078 | 100 ft | 179 kts | 286° |
| 2026-04-24 05:58 | 32.73984 | -117.21513 | 820 ft | 181 kts | 287° |
| 2026-04-24 05:58 | 32.74424 | -117.22912 | 1566 ft | 183 kts | 297° |
| 2026-04-24 05:59 | 32.74898 | -117.23757 | 2005 ft | 188 kts | 312° |
| 2026-04-24 05:59 | 32.75826 | -117.24876 | 2693 ft | 194 kts | 315° |
| 2026-04-24 05:59 | 32.77052 | -117.26603 | 3489 ft | 212 kts | 306° |
| 2026-04-24 05:59 | 32.77593 | -117.27573 | 3910 ft | 220 kts | 304° |
| 2026-04-24 06:00 | 32.78749 | -117.29713 | 4723 ft | 242 kts | 304° |
| 2026-04-24 06:00 | 32.79376 | -117.30833 | 5207 ft | 249 kts | 305° |
| 2026-04-24 06:00 | 32.80736 | -117.33102 | 6310 ft | 257 kts | 307° |
| 2026-04-24 06:00 | 32.81824 | -117.34775 | 7228 ft | 258 kts | 308° |
| 2026-04-24 06:01 | 32.82953 | -117.36490 | 7891 ft | 270 kts | 307° |
| 2026-04-24 06:01 | 32.83722 | -117.37666 | 8436 ft | 273 kts | 307° |
| 2026-04-24 06:01 | 32.84900 | -117.39480 | 9247 ft | 279 kts | 306° |
| 2026-04-24 06:01 | 32.86460 | -117.41898 | 10323 ft | 283 kts | 306° |
| 2026-04-24 06:02 | 32.87690 | -117.43809 | 10847 ft | 298 kts | 306° |
| 2026-04-24 06:02 | 32.88982 | -117.45820 | 11376 ft | 312 kts | 306° |
| 2026-04-24 06:02 | 32.90324 | -117.47905 | 12063 ft | 319 kts | 306° |
| 2026-04-24 06:02 | 32.91658 | -117.49976 | 12833 ft | 322 kts | 305° |
| 2026-04-24 06:03 | 32.93029 | -117.52105 | 13622 ft | 324 kts | 305° |
| 2026-04-24 06:03 | 32.94403 | -117.54243 | 14377 ft | 327 kts | 305° |
| 2026-04-24 06:03 | 32.95322 | -117.55674 | 14878 ft | 330 kts | 304° |
| 2026-04-24 06:03 | 32.97162 | -117.58543 | 15886 ft | 333 kts | 304° |
| 2026-04-24 06:04 | 32.98096 | -117.60000 | 16391 ft | 334 kts | 304° |
| 2026-04-24 06:04 | 32.99998 | -117.62972 | 17300 ft | 339 kts | 304° |
| 2026-04-24 06:04 | 33.01427 | -117.65205 | 18016 ft | 341 kts | 303° |
| 2026-04-24 06:04 | 33.02869 | -117.67460 | 18687 ft | 344 kts | 303° |
| 2026-04-24 06:05 | 33.04297 | -117.69692 | 19383 ft | 345 kts | 303° |
| 2026-04-24 06:05 | 33.05802 | -117.71964 | 20039 ft | 348 kts | 306° |
| 2026-04-24 06:05 | 33.07458 | -117.74086 | 20680 ft | 353 kts | 311° |
| 2026-04-24 06:05 | 33.09276 | -117.76070 | 21299 ft | 357 kts | 314° |
| 2026-04-24 06:06 | 33.11159 | -117.77982 | 21942 ft | 358 kts | 315° |
| 2026-04-24 06:06 | 33.13080 | -117.79890 | 22496 ft | 361 kts | 315° |
| 2026-04-24 06:06 | 33.15024 | -117.81818 | 23104 ft | 362 kts | 315° |
| 2026-04-24 06:06 | 33.16965 | -117.83756 | 23639 ft | 366 kts | 315° |
| 2026-04-24 06:07 | 33.18920 | -117.85723 | 24155 ft | 369 kts | 315° |
| 2026-04-24 06:07 | 33.20859 | -117.87766 | 24681 ft | 371 kts | 312° |
| 2026-04-24 06:07 | 33.22696 | -117.89886 | 25232 ft | 371 kts | 310° |
| 2026-04-24 06:07 | 33.24538 | -117.92108 | 25730 ft | 374 kts | 310° |
| 2026-04-24 06:08 | 33.26337 | -117.94306 | 26290 ft | 375 kts | 310° |
| 2026-04-24 06:08 | 33.28169 | -117.96542 | 26805 ft | 376 kts | 310° |
| 2026-04-24 06:08 | 33.30002 | -117.98768 | 27223 ft | 380 kts | 310° |
| 2026-04-24 06:08 | 33.31890 | -118.01047 | 27707 ft | 382 kts | 310° |
| 2026-04-24 06:09 | 33.33754 | -118.03289 | 28149 ft | 385 kts | 310° |
| 2026-04-24 06:09 | 33.35654 | -118.05569 | 28611 ft | 387 kts | 310° |
| 2026-04-24 06:09 | 33.36916 | -118.07081 | 28890 ft | 389 kts | 310° |
| 2026-04-24 06:09 | 33.39480 | -118.10156 | 29406 ft | 393 kts | 310° |
| 2026-04-24 06:10 | 33.41386 | -118.12439 | 29915 ft | 393 kts | 310° |
| 2026-04-24 06:10 | 33.43354 | -118.14799 | 30293 ft | 395 kts | 310° |
| 2026-04-24 06:10 | 33.45300 | -118.17133 | 30693 ft | 397 kts | 310° |
| 2026-04-24 06:11 | 33.49195 | -118.21809 | 31509 ft | 398 kts | 309° |
| 2026-04-24 06:11 | 33.51160 | -118.24169 | 32078 ft | 395 kts | 309° |
| 2026-04-24 06:11 | 33.53099 | -118.26496 | 32659 ft | 391 kts | 309° |
| 2026-04-24 06:11 | 33.54984 | -118.28757 | 33210 ft | 387 kts | 308° |
| 2026-04-24 06:12 | 33.56253 | -118.30283 | 33517 ft | 385 kts | 308° |
| 2026-04-24 06:12 | 33.58781 | -118.33329 | 34151 ft | 382 kts | 307° |
| 2026-04-24 06:12 | 33.60656 | -118.35594 | 34559 ft | 381 kts | 307° |
| 2026-04-24 06:12 | 33.62524 | -118.37854 | 34975 ft | 380 kts | 307° |
| 2026-04-24 06:13 | 33.64369 | -118.40086 | 35339 ft | 380 kts | 307° |
| 2026-04-24 06:13 | 33.66245 | -118.42356 | 35682 ft | 380 kts | 307° |
| 2026-04-24 06:13 | 33.68097 | -118.44598 | 35974 ft | 379 kts | 307° |
| 2026-04-24 06:14 | 33.71843 | -118.49145 | 35992 ft | 381 kts | 307° |
| 2026-04-24 06:14 | 33.75558 | -118.53648 | 35978 ft | 378 kts | 307° |
| 2026-04-24 06:15 | 33.79268 | -118.58152 | 35982 ft | 377 kts | 307° |
| 2026-04-24 06:15 | 33.82983 | -118.62667 | 35982 ft | 377 kts | 307° |
| 2026-04-24 06:16 | 33.86662 | -118.67148 | 35981 ft | 377 kts | 307° |
| 2026-04-24 06:16 | 33.90357 | -118.71651 | 35971 ft | 376 kts | 307° |
| 2026-04-24 06:17 | 33.94056 | -118.76170 | 35970 ft | 379 kts | 307° |
| 2026-04-24 06:17 | 33.97158 | -118.79959 | 35966 ft | 375 kts | 307° |
| 2026-04-24 06:18 | 34.01451 | -118.85211 | 35977 ft | 379 kts | 307° |
| 2026-04-24 06:18 | 34.05162 | -118.89760 | 35981 ft | 378 kts | 307° |
| 2026-04-24 06:19 | 34.08878 | -118.94315 | 35978 ft | 376 kts | 307° |
| 2026-04-24 06:19 | 34.12525 | -118.98822 | 35983 ft | 377 kts | 306° |
| 2026-04-24 06:20 | 34.15754 | -119.03764 | 35983 ft | 370 kts | 298° |
| 2026-04-24 06:20 | 34.18526 | -119.09012 | 35980 ft | 370 kts | 296° |
| 2026-04-24 06:21 | 34.20798 | -119.13474 | 35985 ft | 370 kts | 296° |
| 2026-04-24 06:21 | 34.23940 | -119.19637 | 35984 ft | 370 kts | 296° |
| 2026-04-24 06:22 | 34.26669 | -119.24967 | 35985 ft | 370 kts | 296° |
| 2026-04-24 06:22 | 34.29407 | -119.30308 | 35990 ft | 372 kts | 296° |
| 2026-04-24 06:23 | 34.32140 | -119.35643 | 35988 ft | 372 kts | 296° |
| 2026-04-24 06:23 | 34.34862 | -119.40962 | 35991 ft | 370 kts | 296° |
| 2026-04-24 06:24 | 34.37608 | -119.46339 | 35997 ft | 372 kts | 296° |
| 2026-04-24 06:24 | 34.40367 | -119.51662 | 35999 ft | 373 kts | 298° |
| 2026-04-24 06:25 | 34.43678 | -119.56584 | 36001 ft | 380 kts | 307° |
| 2026-04-24 06:25 | 34.47435 | -119.61186 | 36012 ft | 383 kts | 308° |
| 2026-04-24 06:26 | 34.51239 | -119.65754 | 36010 ft | 381 kts | 308° |
| 2026-04-24 06:26 | 34.55009 | -119.70335 | 36016 ft | 382 kts | 307° |
| 2026-04-24 06:27 | 34.58761 | -119.74940 | 36018 ft | 381 kts | 307° |
| 2026-04-24 06:27 | 34.62516 | -119.79575 | 36023 ft | 381 kts | 308° |
| 2026-04-24 06:28 | 34.66232 | -119.84169 | 36025 ft | 381 kts | 308° |
| 2026-04-24 06:28 | 34.69946 | -119.88772 | 36029 ft | 381 kts | 308° |
| 2026-04-24 06:29 | 34.73691 | -119.93418 | 36036 ft | 381 kts | 307° |
| 2026-04-24 06:29 | 34.77410 | -119.98039 | 36039 ft | 382 kts | 307° |
| 2026-04-24 06:30 | 34.81153 | -120.02696 | 36038 ft | 381 kts | 308° |
| 2026-04-24 06:30 | 34.84876 | -120.07333 | 36036 ft | 382 kts | 307° |
| 2026-04-24 06:31 | 34.88604 | -120.11986 | 36040 ft | 381 kts | 308° |
| 2026-04-24 06:31 | 34.92336 | -120.16646 | 36031 ft | 383 kts | 307° |
| 2026-04-24 06:31 | 34.94176 | -120.18947 | 35799 ft | 381 kts | 307° |
| 2026-04-24 06:32 | 34.96046 | -120.21284 | 36008 ft | 381 kts | 307° |
| 2026-04-24 06:32 | 34.99790 | -120.25980 | 36027 ft | 387 kts | 307° |
| 2026-04-24 06:33 | 35.03533 | -120.30672 | 36028 ft | 383 kts | 308° |
| 2026-04-24 06:33 | 35.07275 | -120.35372 | 36024 ft | 386 kts | 307° |
| 2026-04-24 06:34 | 35.11126 | -120.40063 | 36020 ft | 389 kts | 310° |
| 2026-04-24 06:34 | 35.15130 | -120.44518 | 36022 ft | 390 kts | 311° |
| 2026-04-24 06:35 | 35.19187 | -120.48984 | 36020 ft | 390 kts | 311° |
| 2026-04-24 06:35 | 35.23229 | -120.53473 | 36024 ft | 390 kts | 311° |
| 2026-04-24 06:36 | 35.27271 | -120.57996 | 36024 ft | 391 kts | 311° |
| 2026-04-24 06:36 | 35.31289 | -120.62515 | 36021 ft | 391 kts | 310° |
| 2026-04-24 06:37 | 35.35321 | -120.67059 | 36019 ft | 391 kts | 310° |
| 2026-04-24 06:37 | 35.39355 | -120.71609 | 36025 ft | 391 kts | 310° |
| 2026-04-24 06:38 | 35.43383 | -120.76163 | 36021 ft | 392 kts | 310° |
| 2026-04-24 06:38 | 35.47389 | -120.80697 | 36023 ft | 392 kts | 310° |
| 2026-04-24 06:39 | 35.51609 | -120.85021 | 36022 ft | 396 kts | 315° |
| 2026-04-24 06:39 | 35.56046 | -120.89088 | 36018 ft | 398 kts | 316° |
| 2026-04-24 06:40 | 35.60502 | -120.93134 | 36008 ft | 399 kts | 316° |
| 2026-04-24 06:40 | 35.64952 | -120.97219 | 36024 ft | 399 kts | 316° |
| 2026-04-24 06:41 | 35.69405 | -121.01348 | 36022 ft | 399 kts | 315° |
| 2026-04-24 06:41 | 35.73807 | -121.05447 | 36025 ft | 397 kts | 315° |
| 2026-04-24 06:42 | 35.78234 | -121.09583 | 36030 ft | 400 kts | 315° |
| 2026-04-24 06:42 | 35.82700 | -121.13762 | 36031 ft | 400 kts | 315° |
| 2026-04-24 06:43 | 35.87061 | -121.17844 | 36035 ft | 400 kts | 315° |
| 2026-04-24 06:43 | 35.91479 | -121.21986 | 35924 ft | 400 kts | 316° |
| 2026-04-24 06:43 | 35.93648 | -121.24020 | 35604 ft | 396 kts | 316° |
| 2026-04-24 06:44 | 35.95824 | -121.26061 | 35144 ft | 393 kts | 316° |
| 2026-04-24 06:44 | 35.97987 | -121.28092 | 34715 ft | 391 kts | 316° |
| 2026-04-24 06:44 | 36.00171 | -121.30144 | 34229 ft | 390 kts | 316° |
| 2026-04-24 06:44 | 36.02314 | -121.32162 | 33665 ft | 388 kts | 316° |
| 2026-04-24 06:45 | 36.04432 | -121.34157 | 33177 ft | 385 kts | 316° |
| 2026-04-24 06:45 | 36.06575 | -121.36169 | 32660 ft | 383 kts | 317° |
| 2026-04-24 06:45 | 36.08746 | -121.38062 | 32183 ft | 381 kts | 320° |
| 2026-04-24 06:45 | 36.10946 | -121.39821 | 31705 ft | 380 kts | 322° |
| 2026-04-24 06:46 | 36.13179 | -121.41533 | 31234 ft | 377 kts | 323° |
| 2026-04-24 06:46 | 36.15402 | -121.43224 | 30746 ft | 374 kts | 323° |
| 2026-04-24 06:46 | 36.17581 | -121.44887 | 30285 ft | 370 kts | 323° |
| 2026-04-24 06:46 | 36.19725 | -121.46535 | 29831 ft | 372 kts | 323° |
| 2026-04-24 06:47 | 36.21981 | -121.48286 | 29359 ft | 391 kts | 323° |
| 2026-04-24 06:47 | 36.24338 | -121.50132 | 28840 ft | 413 kts | 323° |
| 2026-04-24 06:47 | 36.26773 | -121.52044 | 28312 ft | 419 kts | 323° |
| 2026-04-24 06:47 | 36.29256 | -121.53986 | 27762 ft | 415 kts | 323° |
| 2026-04-24 06:48 | 36.31676 | -121.55874 | 27237 ft | 410 kts | 324° |
| 2026-04-24 06:48 | 36.34086 | -121.57752 | 26719 ft | 406 kts | 324° |
| 2026-04-24 06:48 | 36.36463 | -121.59608 | 26206 ft | 403 kts | 323° |
| 2026-04-24 06:48 | 36.38857 | -121.61481 | 25690 ft | 402 kts | 323° |
| 2026-04-24 06:49 | 36.41208 | -121.63326 | 25184 ft | 399 kts | 324° |
| 2026-04-24 06:49 | 36.43542 | -121.65160 | 24683 ft | 397 kts | 323° |
| 2026-04-24 06:49 | 36.45892 | -121.67010 | 24190 ft | 395 kts | 323° |
| 2026-04-24 06:49 | 36.48233 | -121.68853 | 23691 ft | 393 kts | 323° |
| 2026-04-24 06:50 | 36.50536 | -121.70667 | 23206 ft | 389 kts | 323° |
| 2026-04-24 06:50 | 36.52817 | -121.72468 | 22723 ft | 387 kts | 323° |
| 2026-04-24 06:50 | 36.55104 | -121.74276 | 22233 ft | 385 kts | 323° |
| 2026-04-24 06:50 | 36.57339 | -121.76045 | 21749 ft | 383 kts | 324° |
| 2026-04-24 06:51 | 36.59584 | -121.77823 | 21264 ft | 380 kts | 324° |
| 2026-04-24 06:51 | 36.61841 | -121.79610 | 20784 ft | 379 kts | 324° |
| 2026-04-24 06:51 | 36.64059 | -121.81370 | 20298 ft | 378 kts | 324° |
| 2026-04-24 06:51 | 36.66274 | -121.83128 | 19815 ft | 376 kts | 325° |
| 2026-04-24 06:52 | 36.68482 | -121.84882 | 19339 ft | 374 kts | 325° |
| 2026-04-24 06:52 | 36.70654 | -121.86608 | 18868 ft | 373 kts | 326° |
| 2026-04-24 06:52 | 36.72891 | -121.88305 | 18376 ft | 372 kts | 329° |
| 2026-04-24 06:52 | 36.75215 | -121.89691 | 17886 ft | 369 kts | 338° |
| 2026-04-24 06:53 | 36.77641 | -121.90640 | 17428 ft | 367 kts | 345° |
| 2026-04-24 06:53 | 36.80117 | -121.91356 | 16879 ft | 365 kts | 347° |
| 2026-04-24 06:53 | 36.82605 | -121.91980 | 16393 ft | 361 kts | 348° |
| 2026-04-24 06:53 | 36.85054 | -121.92584 | 15931 ft | 357 kts | 348° |
| 2026-04-24 06:54 | 36.87458 | -121.93195 | 15475 ft | 353 kts | 348° |
| 2026-04-24 06:54 | 36.89843 | -121.93823 | 15021 ft | 350 kts | 348° |
| 2026-04-24 06:54 | 36.92214 | -121.94467 | 14559 ft | 347 kts | 348° |
| 2026-04-24 06:54 | 36.94584 | -121.95123 | 14108 ft | 343 kts | 348° |
| 2026-04-24 06:55 | 36.96878 | -121.95835 | 13670 ft | 332 kts | 345° |
| 2026-04-24 06:55 | 36.99080 | -121.96671 | 13246 ft | 336 kts | 343° |
| 2026-04-24 06:55 | 37.01301 | -121.97581 | 12797 ft | 327 kts | 342° |
| 2026-04-24 06:55 | 37.03402 | -121.98449 | 12380 ft | 305 kts | 342° |
| 2026-04-24 06:56 | 37.05336 | -121.99237 | 12007 ft | 288 kts | 343° |
| 2026-04-24 06:56 | 37.07266 | -122.00008 | 11630 ft | 290 kts | 343° |
| 2026-04-24 06:56 | 37.09191 | -122.00767 | 11241 ft | 288 kts | 343° |
| 2026-04-24 06:56 | 37.11103 | -122.01514 | 10867 ft | 286 kts | 343° |
| 2026-04-24 06:57 | 37.12999 | -122.02254 | 10497 ft | 283 kts | 343° |
| 2026-04-24 06:57 | 37.14879 | -122.02988 | 10133 ft | 281 kts | 343° |
| 2026-04-24 06:57 | 37.16611 | -122.03666 | 9902 ft | 275 kts | 343° |
| 2026-04-24 06:57 | 37.18441 | -122.04382 | 9675 ft | 278 kts | 343° |
| 2026-04-24 06:58 | 37.20253 | -122.05092 | 9293 ft | 278 kts | 343° |
| 2026-04-24 06:58 | 37.22090 | -122.05812 | 8960 ft | 275 kts | 343° |
| 2026-04-24 06:58 | 37.23922 | -122.06531 | 8615 ft | 273 kts | 343° |
| 2026-04-24 06:58 | 37.25737 | -122.07244 | 8274 ft | 271 kts | 343° |
| 2026-04-24 06:59 | 37.27525 | -122.07945 | 7973 ft | 268 kts | 343° |
| 2026-04-24 06:59 | 37.29321 | -122.08652 | 7578 ft | 271 kts | 343° |
| 2026-04-24 06:59 | 37.31109 | -122.09355 | 7157 ft | 272 kts | 343° |
| 2026-04-24 06:59 | 37.32912 | -122.10066 | 6810 ft | 270 kts | 343° |
| 2026-04-24 07:00 | 37.34708 | -122.10775 | 6469 ft | 268 kts | 343° |
| 2026-04-24 07:00 | 37.36467 | -122.11469 | 6136 ft | 266 kts | 343° |
| 2026-04-24 07:00 | 37.38209 | -122.12142 | 5889 ft | 257 kts | 344° |
| 2026-04-24 07:00 | 37.39941 | -122.12752 | 5489 ft | 255 kts | 345° |
| 2026-04-24 07:01 | 37.41597 | -122.13306 | 5216 ft | 249 kts | 345° |
| 2026-04-24 07:01 | 37.43239 | -122.13856 | 4895 ft | 248 kts | 345° |
| 2026-04-24 07:01 | 37.44898 | -122.14419 | 4596 ft | 246 kts | 345° |
| 2026-04-24 07:01 | 37.46518 | -122.14973 | 4301 ft | 245 kts | 345° |
| 2026-04-24 07:02 | 37.48117 | -122.15522 | 4009 ft | 243 kts | 345° |
| 2026-04-24 07:02 | 37.49744 | -122.16081 | 3712 ft | 242 kts | 345° |
| 2026-04-24 07:02 | 37.51380 | -122.16644 | 3428 ft | 240 kts | 345° |
| 2026-04-24 07:02 | 37.52901 | -122.17319 | 3188 ft | 233 kts | 332° |
| 2026-04-24 07:03 | 37.54047 | -122.18593 | 3000 ft | 222 kts | 306° |
| 2026-04-24 07:03 | 37.54667 | -122.20287 | 2676 ft | 206 kts | 291° |
| 2026-04-24 07:03 | 37.55214 | -122.21883 | 2417 ft | 190 kts | 298° |
| 2026-04-24 07:03 | 37.55832 | -122.23257 | 2178 ft | 176 kts | 300° |
| 2026-04-24 07:04 | 37.56395 | -122.24540 | 1953 ft | 164 kts | 298° |
| 2026-04-24 07:04 | 37.56891 | -122.25723 | 1803 ft | 148 kts | 298° |
| 2026-04-24 07:04 | 37.57370 | -122.26862 | 1558 ft | 145 kts | 298° |
| 2026-04-24 07:04 | 37.57841 | -122.27971 | 1387 ft | 145 kts | 298° |
| 2026-04-24 07:05 | 37.58310 | -122.29076 | 1193 ft | 144 kts | 298° |
| 2026-04-24 07:05 | 37.58790 | -122.30192 | 969 ft | 144 kts | 298° |
| 2026-04-24 07:05 | 37.59266 | -122.31314 | 795 ft | 144 kts | 298° |
| 2026-04-24 07:05 | 37.59730 | -122.32425 | 624 ft | 144 kts | 297° |
| 2026-04-24 07:06 | 37.60197 | -122.33533 | 431 ft | 143 kts | 297° |
| 2026-04-24 07:06 | 37.60661 | -122.34627 | 276 ft | 141 kts | 297° |
| 2026-04-24 07:06 | 37.61111 | -122.35694 | 84 ft | 141 kts | 297° |
| 2026-04-24 07:06 | 37.61555 | -122.36749 | 14 ft | 127 kts | 296° |
| 2026-04-24 07:07 | 37.61877 | -122.37521 | 22 ft | 75 kts | 297° |
| 2026-04-24 07:07 | 37.62049 | -122.37926 | 28 ft | 36 kts | 298° |
| 2026-04-24 07:07 | 37.62157 | -122.38191 | 30 ft | 11 kts | 297° |
| 2026-04-24 07:08 | 37.62163 | -122.38285 | 31 ft | 10 kts | 246° |
| 2026-04-24 07:08 | 37.62108 | -122.38327 | 31 ft | 7 kts | 195° |
| 2026-04-24 07:08 | 37.62061 | -122.38348 | 31 ft | 6 kts | 217° |
| 2026-04-24 07:08 | 37.62051 | -122.38397 | 31 ft | 6 kts | 282° |
| 2026-04-24 07:09 | 37.62067 | -122.38444 | 32 ft | 5 kts | 298° |
| 2026-04-24 07:09 | 37.62084 | -122.38487 | 32 ft | 5 kts | 297° |
| 2026-04-24 07:09 | 37.62089 | -122.38532 | 32 ft | 5 kts | 253° |
| 2026-04-24 07:09 | 37.62066 | -122.38561 | 32 ft | 4 kts | 210° |
| 2026-04-24 07:10 | 37.62040 | -122.38579 | 32 ft | 3 kts | 208° |
| 2026-04-24 07:10 | 37.62021 | -122.38592 | 32 ft | 2 kts | 208° |
| 2026-04-24 07:10 | 37.62002 | -122.38605 | 32 ft | 3 kts | 209° |
| 2026-04-24 07:10 | 37.61982 | -122.38615 | 32 ft | 2 kts | 201° |
| 2026-04-24 07:11 | 37.61969 | -122.38624 | 32 ft | 2 kts | 207° |
| 2026-04-24 07:11 | 37.61957 | -122.38632 | 32 ft | 1 kts | 213° |
| 2026-04-24 07:11 | 37.61956 | -122.38634 | 32 ft | 0 kts | 213° |
| 2026-04-24 07:11 | 37.61955 | -122.38634 | 32 ft | 0 kts | 213° |
| 2026-04-24 07:12 | 37.61948 | -122.38641 | 32 ft | 0 kts | 213° |
| 2026-04-24 07:12 | 37.61944 | -122.38643 | 32 ft | 1 kts | 213° |
| 2026-04-24 07:12 | 37.61941 | -122.38646 | 32 ft | 0 kts | 213° |
| 2026-04-24 07:12 | 37.61939 | -122.38648 | 33 ft | 0 kts | 213° |